sensor_id;sensor_type;location;lat;lon;timestamp;pressure;altitude;pressure_sealevel;temperature;humidity
5812;BME280;2932;52.400;9.558;2023-03-23T00:00:51;99801.47;;;15.06;68.60
5812;BME280;2932;52.400;9.558;2023-03-23T00:03:16;99797.50;;;15.46;68.04
5812;BME280;2932;52.400;9.558;2023-03-23T00:05:42;99801.53;;;15.59;67.79
5812;BME280;2932;52.400;9.558;2023-03-23T00:08:16;99801.47;;;15.20;69.74
5812;BME280;2932;52.400;9.558;2023-03-23T00:10:41;99793.13;;;15.41;69.74
5812;BME280;2932;52.400;9.558;2023-03-23T00:13:06;99794.28;;;14.94;71.29
5812;BME280;2932;52.400;9.558;2023-03-23T00:15:32;99797.13;;;15.12;70.93
5812;BME280;2932;52.400;9.558;2023-03-23T00:17:59;99787.16;;;15.39;70.34
5812;BME280;2932;52.400;9.558;2023-03-23T00:20:29;99782.78;;;15.31;71.05
5812;BME280;2932;52.400;9.558;2023-03-23T00:22:55;99780.38;;;15.26;71.26
5812;BME280;2932;52.400;9.558;2023-03-23T00:25:25;99779.59;;;15.47;70.68
5812;BME280;2932;52.400;9.558;2023-03-23T00:27:51;99781.19;;;15.05;71.48
5812;BME280;2932;52.400;9.558;2023-03-23T00:30:16;99773.22;;;15.60;71.06
5812;BME280;2932;52.400;9.558;2023-03-23T00:32:42;99780.75;;;14.92;72.07
5812;BME280;2932;52.400;9.558;2023-03-23T00:35:08;99778.00;;;15.10;71.77
5812;BME280;2932;52.400;9.558;2023-03-23T00:37:34;99761.19;;;14.53;73.37
5812;BME280;2932;52.400;9.558;2023-03-23T00:40:01;99766.06;;;15.27;71.95
5812;BME280;2932;52.400;9.558;2023-03-23T00:42:30;99762.06;;;14.86;72.88
5812;BME280;2932;52.400;9.558;2023-03-23T00:45:01;99775.19;;;14.96;73.13
5812;BME280;2932;52.400;9.558;2023-03-23T00:47:27;99767.63;;;14.79;73.33
5812;BME280;2932;52.400;9.558;2023-03-23T00:49:53;99773.38;;;14.17;74.74
5812;BME280;2932;52.400;9.558;2023-03-23T00:52:20;99760.06;;;14.83;72.93
5812;BME280;2932;52.400;9.558;2023-03-23T00:54:46;99761.28;;;15.10;72.90
5812;BME280;2932;52.400;9.558;2023-03-23T00:57:11;99756.06;;;14.59;74.21
5812;BME280;2932;52.400;9.558;2023-03-23T00:59:37;99756.84;;;14.59;74.08
5812;BME280;2932;52.400;9.558;2023-03-23T01:02:02;99753.63;;;14.47;74.96
5812;BME280;2932;52.400;9.558;2023-03-23T01:04:27;99757.28;;;14.72;74.99
5812;BME280;2932;52.400;9.558;2023-03-23T01:06:53;99765.91;;;14.39;75.84
5812;BME280;2932;52.400;9.558;2023-03-23T01:09:19;99749.72;;;14.76;75.23
5812;BME280;2932;52.400;9.558;2023-03-23T01:11:48;99745.34;;;15.39;73.38
5812;BME280;2932;52.400;9.558;2023-03-23T01:14:16;99741.38;;;15.01;74.34
5812;BME280;2932;52.400;9.558;2023-03-23T01:16:42;99734.22;;;14.75;75.18
5812;BME280;2932;52.400;9.558;2023-03-23T01:19:07;99744.16;;;14.83;74.97
5812;BME280;2932;52.400;9.558;2023-03-23T01:21:33;99754.88;;;14.63;75.77
5812;BME280;2932;52.400;9.558;2023-03-23T01:23:58;99733.00;;;14.83;75.60
5812;BME280;2932;52.400;9.558;2023-03-23T01:26:25;99729.41;;;14.61;75.36
5812;BME280;2932;52.400;9.558;2023-03-23T01:28:52;99713.13;;;14.95;75.12
5812;BME280;2932;52.400;9.558;2023-03-23T01:31:20;99707.16;;;15.18;74.28
5812;BME280;2932;52.400;9.558;2023-03-23T01:33:46;99717.47;;;15.32;74.65
5812;BME280;2932;52.400;9.558;2023-03-23T01:36:20;99710.72;;;15.26;74.29
5812;BME280;2932;52.400;9.558;2023-03-23T01:38:47;99707.97;;;15.08;74.34
5812;BME280;2932;52.400;9.558;2023-03-23T01:41:14;99705.97;;;14.73;75.74
5812;BME280;2932;52.400;9.558;2023-03-23T01:46:42;99699.94;;;14.50;75.99
5812;BME280;2932;52.400;9.558;2023-03-23T01:49:11;99707.16;;;14.72;76.06
5812;BME280;2932;52.400;9.558;2023-03-23T01:51:59;99709.53;;;14.98;75.31
5812;BME280;2932;52.400;9.558;2023-03-23T01:54:26;99703.97;;;14.66;75.89
5812;BME280;2932;52.400;9.558;2023-03-23T01:57:02;99709.53;;;14.88;75.51
5812;BME280;2932;52.400;9.558;2023-03-23T01:59:29;99706.75;;;14.84;75.58
5812;BME280;2932;52.400;9.558;2023-03-23T02:01:55;99718.31;;;14.76;75.25
5812;BME280;2932;52.400;9.558;2023-03-23T02:04:22;99704.34;;;14.58;75.53
5812;BME280;2932;52.400;9.558;2023-03-23T02:06:48;99715.09;;;14.81;75.21
5812;BME280;2932;52.400;9.558;2023-03-23T02:09:14;99703.53;;;14.50;76.00
5812;BME280;2932;52.400;9.558;2023-03-23T02:11:42;99694.03;;;15.01;74.99
5812;BME280;2932;52.400;9.558;2023-03-23T02:14:07;99688.84;;;14.82;75.09
5812;BME280;2932;52.400;9.558;2023-03-23T02:16:54;99698.00;;;14.93;75.00
5812;BME280;2932;52.400;9.558;2023-03-23T02:22:03;99689.66;;;14.64;74.92
5812;BME280;2932;52.400;9.558;2023-03-23T02:35:34;99666.97;;;15.09;73.61
5812;BME280;2932;52.400;9.558;2023-03-23T02:38:14;99660.59;;;14.97;73.55
5812;BME280;2932;52.400;9.558;2023-03-23T02:40:44;99657.84;;;14.69;74.08
5812;BME280;2932;52.400;9.558;2023-03-23T02:43:13;99676.53;;;14.61;74.63
5812;BME280;2932;52.400;9.558;2023-03-23T02:45:41;99665.78;;;14.74;74.70
5812;BME280;2932;52.400;9.558;2023-03-23T02:48:08;99657.03;;;14.68;74.33
5812;BME280;2932;52.400;9.558;2023-03-23T02:50:37;99659.81;;;14.97;74.29
5812;BME280;2932;52.400;9.558;2023-03-23T02:53:07;99664.59;;;14.96;73.50
5812;BME280;2932;52.400;9.558;2023-03-23T02:55:34;99670.53;;;15.06;73.33
5812;BME280;2932;52.400;9.558;2023-03-23T02:58:05;99653.03;;;14.87;73.86
5812;BME280;2932;52.400;9.558;2023-03-23T03:00:30;99645.09;;;14.75;73.99
5812;BME280;2932;52.400;9.558;2023-03-23T03:02:57;99648.25;;;14.95;73.60
5812;BME280;2932;52.400;9.558;2023-03-23T03:10:58;99633.53;;;14.98;74.25
5812;BME280;2932;52.400;9.558;2023-03-23T03:16:24;99648.28;;;14.74;75.03
5812;BME280;2932;52.400;9.558;2023-03-23T03:21:42;99650.25;;;14.84;74.89
5812;BME280;2932;52.400;9.558;2023-03-23T03:24:10;99622.44;;;14.59;75.47
5812;BME280;2932;52.400;9.558;2023-03-23T03:26:42;99614.84;;;14.98;74.46
5812;BME280;2932;52.400;9.558;2023-03-23T03:29:10;99618.81;;;15.01;73.78
5812;BME280;2932;52.400;9.558;2023-03-23T03:31:39;99620.00;;;15.11;73.90
5812;BME280;2932;52.400;9.558;2023-03-23T03:34:10;99623.22;;;14.77;74.45
5812;BME280;2932;52.400;9.558;2023-03-23T03:36:36;99620.81;;;14.93;73.65
5812;BME280;2932;52.400;9.558;2023-03-23T03:39:07;99630.75;;;14.98;73.22
5812;BME280;2932;52.400;9.558;2023-03-23T03:41:35;99624.03;;;14.60;73.97
5812;BME280;2932;52.400;9.558;2023-03-23T03:44:01;99609.69;;;14.86;72.85
5812;BME280;2932;52.400;9.558;2023-03-23T03:46:27;99616.81;;;15.12;72.84
5812;BME280;2932;52.400;9.558;2023-03-23T03:48:55;99617.63;;;14.81;72.85
5812;BME280;2932;52.400;9.558;2023-03-23T03:51:22;99624.03;;;14.63;72.75
5812;BME280;2932;52.400;9.558;2023-03-23T03:53:47;99638.34;;;14.76;72.21
5812;BME280;2932;52.400;9.558;2023-03-23T03:56:13;99618.81;;;14.94;71.51
5812;BME280;2932;52.400;9.558;2023-03-23T03:58:39;99604.06;;;15.15;70.90
5812;BME280;2932;52.400;9.558;2023-03-23T04:01:04;99611.19;;;15.30;70.22
5812;BME280;2932;52.400;9.558;2023-03-23T04:03:29;99597.31;;;15.01;70.37
5812;BME280;2932;52.400;9.558;2023-03-23T04:05:55;99611.25;;;14.87;70.85
5812;BME280;2932;52.400;9.558;2023-03-23T04:08:24;99599.38;;;14.69;71.06
5812;BME280;2932;52.400;9.558;2023-03-23T04:11:05;99596.16;;;14.81;71.09
5812;BME280;2932;52.400;9.558;2023-03-23T04:13:42;99604.91;;;14.83;70.74
5812;BME280;2932;52.400;9.558;2023-03-23T04:16:10;99598.56;;;14.65;70.84
5812;BME280;2932;52.400;9.558;2023-03-23T04:18:36;99592.22;;;14.75;71.75
5812;BME280;2932;52.400;9.558;2023-03-23T04:21:02;99583.06;;;14.67;71.02
5812;BME280;2932;52.400;9.558;2023-03-23T04:23:33;99601.75;;;14.71;71.07
5812;BME280;2932;52.400;9.558;2023-03-23T04:26:00;99590.97;;;14.83;71.12
5812;BME280;2932;52.400;9.558;2023-03-23T04:28:31;99590.56;;;15.06;70.13
5812;BME280;2932;52.400;9.558;2023-03-23T04:30:59;99597.25;;;15.26;69.65
5812;BME280;2932;52.400;9.558;2023-03-23T04:33:27;99590.97;;;14.90;70.32
5812;BME280;2932;52.400;9.558;2023-03-23T04:35:55;99594.19;;;14.46;70.64
5812;BME280;2932;52.400;9.558;2023-03-23T04:38:26;99598.19;;;14.74;69.92
5812;BME280;2932;52.400;9.558;2023-03-23T04:40:55;99587.44;;;14.79;70.01
5812;BME280;2932;52.400;9.558;2023-03-23T04:43:22;99594.94;;;15.00;69.41
5812;BME280;2932;52.400;9.558;2023-03-23T04:45:53;99581.47;;;14.77;69.95
5812;BME280;2932;52.400;9.558;2023-03-23T04:48:25;99586.19;;;14.87;69.45
5812;BME280;2932;52.400;9.558;2023-03-23T04:50:51;99576.69;;;14.63;70.10
5812;BME280;2932;52.400;9.558;2023-03-23T04:56:12;99580.28;;;14.75;69.62
5812;BME280;2932;52.400;9.558;2023-03-23T04:58:39;99573.84;;;14.95;68.87
5812;BME280;2932;52.400;9.558;2023-03-23T05:01:06;99581.03;;;14.89;69.50
5812;BME280;2932;52.400;9.558;2023-03-23T05:03:31;99585.78;;;14.96;69.63
5812;BME280;2932;52.400;9.558;2023-03-23T05:06:02;99580.63;;;14.98;69.24
5812;BME280;2932;52.400;9.558;2023-03-23T05:08:27;99600.53;;;14.93;69.65
5812;BME280;2932;52.400;9.558;2023-03-23T05:10:57;99609.28;;;14.98;69.11
5812;BME280;2932;52.400;9.558;2023-03-23T05:13:27;99610.47;;;14.87;69.58
5812;BME280;2932;52.400;9.558;2023-03-23T05:15:53;99622.31;;;15.30;68.99
5812;BME280;2932;52.400;9.558;2023-03-23T05:18:18;99610.38;;;15.33;68.54
5812;BME280;2932;52.400;9.558;2023-03-23T05:20:47;99616.81;;;15.16;68.91
5812;BME280;2932;52.400;9.558;2023-03-23T05:23:14;99597.34;;;14.98;68.97
5812;BME280;2932;52.400;9.558;2023-03-23T05:25:42;99605.69;;;15.05;68.33
5812;BME280;2932;52.400;9.558;2023-03-23T05:28:11;99631.16;;;15.04;68.61
5812;BME280;2932;52.400;9.558;2023-03-23T05:30:38;99613.19;;;15.26;68.01
5812;BME280;2932;52.400;9.558;2023-03-23T05:33:06;99612.03;;;15.06;68.45
5812;BME280;2932;52.400;9.558;2023-03-23T05:35:34;99616.00;;;15.15;67.97
5812;BME280;2932;52.400;9.558;2023-03-23T05:38:05;99608.38;;;15.30;68.12
5812;BME280;2932;52.400;9.558;2023-03-23T05:40:33;99616.75;;;15.23;68.06
5812;BME280;2932;52.400;9.558;2023-03-23T05:42:58;99599.22;;;15.33;67.90
5812;BME280;2932;52.400;9.558;2023-03-23T05:45:25;99601.63;;;15.24;67.89
5812;BME280;2932;52.400;9.558;2023-03-23T05:47:51;99601.63;;;15.31;67.23
5812;BME280;2932;52.400;9.558;2023-03-23T05:50:17;99599.69;;;15.10;68.39
5812;BME280;2932;52.400;9.558;2023-03-23T05:52:42;99597.72;;;15.04;68.38
5812;BME280;2932;52.400;9.558;2023-03-23T05:55:08;99607.28;;;15.02;68.29
5812;BME280;2932;52.400;9.558;2023-03-23T05:57:34;99601.63;;;15.34;67.63
5812;BME280;2932;52.400;9.558;2023-03-23T05:59:59;99604.91;;;14.97;68.61
5812;BME280;2932;52.400;9.558;2023-03-23T06:02:30;99610.56;;;15.88;66.49
5812;BME280;2932;52.400;9.558;2023-03-23T06:04:56;99603.53;;;15.55;67.22
5812;BME280;2932;52.400;9.558;2023-03-23T06:07:24;99592.06;;;15.32;67.59
5812;BME280;2932;52.400;9.558;2023-03-23T06:09:51;99588.44;;;15.42;67.43
5812;BME280;2932;52.400;9.558;2023-03-23T06:12:16;99583.28;;;15.37;67.72
5812;BME280;2932;52.400;9.558;2023-03-23T06:14:45;99587.63;;;15.49;66.67
5812;BME280;2932;52.400;9.558;2023-03-23T06:17:11;99572.94;;;15.41;67.15
5812;BME280;2932;52.400;9.558;2023-03-23T06:19:37;99581.41;;;14.91;68.22
5812;BME280;2932;52.400;9.558;2023-03-23T06:22:04;99592.56;;;15.02;68.17
5812;BME280;2932;52.400;9.558;2023-03-23T06:24:32;99577.03;;;15.01;68.12
5812;BME280;2932;52.400;9.558;2023-03-23T06:26:59;99603.31;;;14.86;68.13
5812;BME280;2932;52.400;9.558;2023-03-23T06:29:25;99594.88;;;15.25;67.72
5812;BME280;2932;52.400;9.558;2023-03-23T06:31:56;99594.06;;;15.31;67.63
5812;BME280;2932;52.400;9.558;2023-03-23T06:34:23;99603.16;;;15.46;67.03
5812;BME280;2932;52.400;9.558;2023-03-23T06:36:49;99605.63;;;15.26;67.24
5812;BME280;2932;52.400;9.558;2023-03-23T06:39:15;99605.22;;;15.28;67.82
5812;BME280;2932;52.400;9.558;2023-03-23T06:41:40;99599.63;;;15.35;66.99
5812;BME280;2932;52.400;9.558;2023-03-23T06:44:06;99612.69;;;15.56;67.12
5812;BME280;2932;52.400;9.558;2023-03-23T06:46:32;99618.81;;;15.01;68.90
5812;BME280;2932;52.400;9.558;2023-03-23T06:48:57;99605.94;;;15.50;67.77
5812;BME280;2932;52.400;9.558;2023-03-23T06:51:23;99616.00;;;15.19;68.45
5812;BME280;2932;52.400;9.558;2023-03-23T06:53:48;99619.88;;;15.53;67.46
5812;BME280;2932;52.400;9.558;2023-03-23T06:56:13;99600.34;;;15.60;67.30
5812;BME280;2932;52.400;9.558;2023-03-23T06:58:39;99623.94;;;15.20;67.88
5812;BME280;2932;52.400;9.558;2023-03-23T07:01:05;99621.81;;;15.67;67.41
5812;BME280;2932;52.400;9.558;2023-03-23T07:03:31;99598.44;;;15.25;68.04
5812;BME280;2932;52.400;9.558;2023-03-23T07:05:57;99610.03;;;15.13;68.57
5812;BME280;2932;52.400;9.558;2023-03-23T07:08:23;99648.16;;;15.59;67.85
5812;BME280;2932;52.400;9.558;2023-03-23T07:10:51;99613.53;;;15.39;68.21
5812;BME280;2932;52.400;9.558;2023-03-23T07:13:17;99607.59;;;15.26;67.99
5812;BME280;2932;52.400;9.558;2023-03-23T07:15:43;99608.38;;;15.33;68.51
5812;BME280;2932;52.400;9.558;2023-03-23T07:18:09;99627.09;;;15.29;67.96
5812;BME280;2932;52.400;9.558;2023-03-23T07:20:34;99611.84;;;15.73;67.26
5812;BME280;2932;52.400;9.558;2023-03-23T07:23:01;99618.56;;;15.86;67.16
5812;BME280;2932;52.400;9.558;2023-03-23T07:25:27;99619.13;;;15.35;68.44
5812;BME280;2932;52.400;9.558;2023-03-23T07:27:52;99617.50;;;15.52;68.21
5812;BME280;2932;52.400;9.558;2023-03-23T07:30:17;99612.31;;;15.57;67.86
5812;BME280;2932;52.400;9.558;2023-03-23T07:32:43;99615.53;;;15.42;67.92
5812;BME280;2932;52.400;9.558;2023-03-23T07:35:09;99621.13;;;15.27;68.02
5812;BME280;2932;52.400;9.558;2023-03-23T07:37:35;99631.38;;;15.70;67.19
5812;BME280;2932;52.400;9.558;2023-03-23T07:40:01;99624.63;;;15.60;66.97
5812;BME280;2932;52.400;9.558;2023-03-23T07:42:40;99622.78;;;16.12;66.69
5812;BME280;2932;52.400;9.558;2023-03-23T07:45:05;99624.53;;;15.85;66.88
5812;BME280;2932;52.400;9.558;2023-03-23T07:47:31;99598.81;;;16.22;66.20
5812;BME280;2932;52.400;9.558;2023-03-23T07:49:56;99603.78;;;15.93;66.64
5812;BME280;2932;52.400;9.558;2023-03-23T07:52:43;99612.34;;;16.23;66.37
5812;BME280;2932;52.400;9.558;2023-03-23T07:55:19;99619.75;;;15.89;66.59
5812;BME280;2932;52.400;9.558;2023-03-23T07:58:11;99606.19;;;15.87;66.93
5812;BME280;2932;52.400;9.558;2023-03-23T08:00:41;99636.38;;;16.03;67.08
5812;BME280;2932;52.400;9.558;2023-03-23T08:03:07;99642.47;;;15.84;66.36
5812;BME280;2932;52.400;9.558;2023-03-23T08:05:56;99617.66;;;16.04;66.17
5812;BME280;2932;52.400;9.558;2023-03-23T08:08:27;99619.31;;;16.53;65.78
5812;BME280;2932;52.400;9.558;2023-03-23T08:10:57;99629.06;;;16.30;65.47
5812;BME280;2932;52.400;9.558;2023-03-23T08:13:34;99643.09;;;16.16;65.20
5812;BME280;2932;52.400;9.558;2023-03-23T08:16:08;99635.88;;;16.26;65.90
5812;BME280;2932;52.400;9.558;2023-03-23T08:21:44;99649.06;;;16.18;65.41
5812;BME280;2932;52.400;9.558;2023-03-23T08:24:09;99644.81;;;16.58;65.11
5812;BME280;2932;52.400;9.558;2023-03-23T08:26:40;99636.69;;;16.19;65.53
5812;BME280;2932;52.400;9.558;2023-03-23T08:29:12;99640.63;;;16.32;65.75
5812;BME280;2932;52.400;9.558;2023-03-23T08:31:38;99649.38;;;16.34;65.91
5812;BME280;2932;52.400;9.558;2023-03-23T08:34:05;99655.97;;;15.96;66.21
5812;BME280;2932;52.400;9.558;2023-03-23T08:36:31;99650.25;;;16.17;66.24
5812;BME280;2932;52.400;9.558;2023-03-23T08:38:57;99655.09;;;16.10;66.27
5812;BME280;2932;52.400;9.558;2023-03-23T08:41:23;99652.44;;;15.85;66.70
5812;BME280;2932;52.400;9.558;2023-03-23T08:43:48;99647.91;;;16.12;66.55
5812;BME280;2932;52.400;9.558;2023-03-23T08:46:14;99682.19;;;16.09;66.64
5812;BME280;2932;52.400;9.558;2023-03-23T08:48:40;99667.38;;;16.23;66.33
5812;BME280;2932;52.400;9.558;2023-03-23T08:51:06;99667.22;;;16.44;65.77
5812;BME280;2932;52.400;9.558;2023-03-23T08:53:32;99676.81;;;16.43;66.23
5812;BME280;2932;52.400;9.558;2023-03-23T08:56:09;99688.38;;;16.45;65.79
5812;BME280;2932;52.400;9.558;2023-03-23T08:58:36;99677.94;;;16.56;65.53
5812;BME280;2932;52.400;9.558;2023-03-23T09:01:03;99675.91;;;16.67;64.91
5812;BME280;2932;52.400;9.558;2023-03-23T09:03:30;99688.78;;;16.44;65.68
5812;BME280;2932;52.400;9.558;2023-03-23T09:06:04;99689.88;;;16.60;65.38
5812;BME280;2932;52.400;9.558;2023-03-23T09:08:30;99672.47;;;16.39;66.00
5812;BME280;2932;52.400;9.558;2023-03-23T09:11:00;99663.59;;;16.54;65.79
5812;BME280;2932;52.400;9.558;2023-03-23T09:13:26;99666.28;;;16.02;66.70
5812;BME280;2932;52.400;9.558;2023-03-23T09:15:51;99668.91;;;16.34;66.49
5812;BME280;2932;52.400;9.558;2023-03-23T09:18:18;99657.06;;;16.16;66.60
5812;BME280;2932;52.400;9.558;2023-03-23T09:20:43;99669.97;;;16.55;65.98
5812;BME280;2932;52.400;9.558;2023-03-23T09:23:09;99671.41;;;16.15;66.27
5812;BME280;2932;52.400;9.558;2023-03-23T09:25:35;99665.56;;;16.57;65.61
5812;BME280;2932;52.400;9.558;2023-03-23T09:28:01;99684.94;;;16.20;66.18
5812;BME280;2932;52.400;9.558;2023-03-23T09:30:30;99673.28;;;16.39;65.39
5812;BME280;2932;52.400;9.558;2023-03-23T09:32:56;99684.88;;;16.30;65.92
5812;BME280;2932;52.400;9.558;2023-03-23T09:35:22;99689.13;;;16.53;65.27
5812;BME280;2932;52.400;9.558;2023-03-23T09:37:49;99698.47;;;16.28;65.92
5812;BME280;2932;52.400;9.558;2023-03-23T09:40:18;99693.69;;;16.22;66.43
5812;BME280;2932;52.400;9.558;2023-03-23T09:50:34;99714.22;;;16.60;64.85
5812;BME280;2932;52.400;9.558;2023-03-23T09:53:19;99702.97;;;16.01;66.25
5812;BME280;2932;52.400;9.558;2023-03-23T09:55:46;99712.44;;;16.21;65.92
5812;BME280;2932;52.400;9.558;2023-03-23T09:58:22;99715.06;;;16.50;65.21
5812;BME280;2932;52.400;9.558;2023-03-23T10:01:03;99716.19;;;16.63;64.87
5812;BME280;2932;52.400;9.558;2023-03-23T10:03:39;99714.47;;;16.17;65.53
5812;BME280;2932;52.400;9.558;2023-03-23T10:06:11;99722.97;;;15.85;66.54
5812;BME280;2932;52.400;9.558;2023-03-23T10:08:43;99732.66;;;16.40;65.47
5812;BME280;2932;52.400;9.558;2023-03-23T10:13:52;99745.50;;;16.33;64.89
5812;BME280;2932;52.400;9.558;2023-03-23T10:16:29;99721.00;;;16.59;64.64
5812;BME280;2932;52.400;9.558;2023-03-23T10:21:30;99751.81;;;16.41;64.37
5812;BME280;2932;52.400;9.558;2023-03-23T10:24:04;99736.16;;;16.58;64.61
5812;BME280;2932;52.400;9.558;2023-03-23T10:27:01;99743.09;;;16.36;65.01
5812;BME280;2932;52.400;9.558;2023-03-23T10:29:34;99744.94;;;16.67;63.97
5812;BME280;2932;52.400;9.558;2023-03-23T10:32:16;99733.00;;;17.15;63.19
5812;BME280;2932;52.400;9.558;2023-03-23T10:37:36;99713.88;;;17.10;63.15
5812;BME280;2932;52.400;9.558;2023-03-23T10:40:05;99744.44;;;17.27;61.82
5812;BME280;2932;52.400;9.558;2023-03-23T10:42:36;99741.56;;;17.38;61.62
5812;BME280;2932;52.400;9.558;2023-03-23T10:45:30;99747.56;;;17.37;61.83
5812;BME280;2932;52.400;9.558;2023-03-23T10:50:34;99747.13;;;17.42;61.41
5812;BME280;2932;52.400;9.558;2023-03-23T10:53:07;99747.38;;;17.58;61.29
5812;BME280;2932;52.400;9.558;2023-03-23T10:55:40;99738.91;;;17.61;60.53
5812;BME280;2932;52.400;9.558;2023-03-23T10:58:09;99748.19;;;17.96;60.30
5812;BME280;2932;52.400;9.558;2023-03-23T11:00:44;99753.88;;;17.89;59.69
5812;BME280;2932;52.400;9.558;2023-03-23T11:05:48;99749.47;;;17.88;59.65
5812;BME280;2932;52.400;9.558;2023-03-23T11:08:26;99724.69;;;18.20;59.82
5812;BME280;2932;52.400;9.558;2023-03-23T11:11:19;99732.34;;;18.16;59.18
5812;BME280;2932;52.400;9.558;2023-03-23T11:13:48;99759.56;;;17.78;57.97
5812;BME280;2932;52.400;9.558;2023-03-23T11:16:33;99740.03;;;17.30;59.85
5812;BME280;2932;52.400;9.558;2023-03-23T11:19:00;99736.50;;;17.63;59.64
5812;BME280;2932;52.400;9.558;2023-03-23T11:21:37;99739.38;;;17.97;58.87
5812;BME280;2932;52.400;9.558;2023-03-23T11:24:05;99757.63;;;17.27;60.05
5812;BME280;2932;52.400;9.558;2023-03-23T11:26:33;99746.25;;;17.89;59.11
5812;BME280;2932;52.400;9.558;2023-03-23T11:29:17;99763.09;;;17.41;60.02
5812;BME280;2932;52.400;9.558;2023-03-23T11:31:53;99743.31;;;17.66;59.30
5812;BME280;2932;52.400;9.558;2023-03-23T11:34:33;99728.91;;;17.23;60.13
5812;BME280;2932;52.400;9.558;2023-03-23T11:37:11;99736.81;;;17.31;59.79
5812;BME280;2932;52.400;9.558;2023-03-23T11:39:59;99752.72;;;17.42;59.48
5812;BME280;2932;52.400;9.558;2023-03-23T11:42:36;99741.94;;;16.92;60.40
5812;BME280;2932;52.400;9.558;2023-03-23T11:47:56;99746.75;;;16.88;60.79
5812;BME280;2932;52.400;9.558;2023-03-23T11:50:26;99762.97;;;17.11;61.88
5812;BME280;2932;52.400;9.558;2023-03-23T11:55:26;99791.00;;;16.20;69.44
5812;BME280;2932;52.400;9.558;2023-03-23T11:57:55;99813.03;;;15.86;73.05
5812;BME280;2932;52.400;9.558;2023-03-23T12:00:21;99825.38;;;15.42;75.28
5812;BME280;2932;52.400;9.558;2023-03-23T12:05:47;99816.88;;;14.53;78.49
5812;BME280;2932;52.400;9.558;2023-03-23T12:16:07;99807.00;;;14.84;75.81
5812;BME280;2932;52.400;9.558;2023-03-23T12:24:54;99831.63;;;14.61;75.10
5812;BME280;2932;52.400;9.558;2023-03-23T12:36:07;99826.88;;;14.65;73.93
5812;BME280;2932;52.400;9.558;2023-03-23T12:41:20;99836.84;;;14.87;74.27
5812;BME280;2932;52.400;9.558;2023-03-23T12:44:00;99834.47;;;14.86;74.10
5812;BME280;2932;52.400;9.558;2023-03-23T12:51:48;99840.50;;;15.38;72.31
5812;BME280;2932;52.400;9.558;2023-03-23T12:56:56;99828.97;;;15.32;70.37
5812;BME280;2932;52.400;9.558;2023-03-23T13:02:34;99836.84;;;14.87;68.93
5812;BME280;2932;52.400;9.558;2023-03-23T13:05:07;99833.72;;;15.07;68.13
5812;BME280;2932;52.400;9.558;2023-03-23T13:10:32;99819.81;;;15.14;67.52
5812;BME280;2932;52.400;9.558;2023-03-23T13:12:58;99825.38;;;15.07;67.13
5812;BME280;2932;52.400;9.558;2023-03-23T13:24:15;99860.81;;;15.38;65.56
5812;BME280;2932;52.400;9.558;2023-03-23T13:26:43;99842.81;;;14.75;67.10
5812;BME280;2932;52.400;9.558;2023-03-23T13:29:13;99840.53;;;15.55;66.56
5812;BME280;2932;52.400;9.558;2023-03-23T13:31:40;99850.00;;;14.90;68.08
5812;BME280;2932;52.400;9.558;2023-03-23T13:34:15;99829.34;;;15.20;67.70
5812;BME280;2932;52.400;9.558;2023-03-23T13:36:51;99841.22;;;14.74;68.45
5812;BME280;2932;52.400;9.558;2023-03-23T13:39:23;99854.22;;;14.49;68.45
5812;BME280;2932;52.400;9.558;2023-03-23T13:44:38;99868.63;;;14.65;68.50
5812;BME280;2932;52.400;9.558;2023-03-23T13:47:08;99857.00;;;14.45;68.90
5812;BME280;2932;52.400;9.558;2023-03-23T13:50:09;99848.16;;;14.29;69.71
5812;BME280;2932;52.400;9.558;2023-03-23T14:02:51;99830.94;;;15.31;67.92
5812;BME280;2932;52.400;9.558;2023-03-23T14:07:53;99828.09;;;16.06;66.98
5812;BME280;2932;52.400;9.558;2023-03-23T14:10:19;99831.75;;;15.53;68.09
5812;BME280;2932;52.400;9.558;2023-03-23T14:12:45;99813.03;;;15.50;67.51
5812;BME280;2932;52.400;9.558;2023-03-23T14:15:13;99805.47;;;15.61;67.22
5812;BME280;2932;52.400;9.558;2023-03-23T14:17:43;99801.09;;;15.67;67.49
5812;BME280;2932;52.400;9.558;2023-03-23T14:20:40;99812.50;;;16.33;66.74
5812;BME280;2932;52.400;9.558;2023-03-23T14:23:05;99819.41;;;15.90;65.93
5812;BME280;2932;52.400;9.558;2023-03-23T14:25:31;99820.88;;;17.10;64.52
5812;BME280;2932;52.400;9.558;2023-03-23T14:27:59;99818.44;;;17.67;62.81
5812;BME280;2932;52.400;9.558;2023-03-23T14:30:35;99821.34;;;18.66;59.88
5812;BME280;2932;52.400;9.558;2023-03-23T14:33:06;99827.56;;;17.75;61.70
5812;BME280;2932;52.400;9.558;2023-03-23T14:35:36;99829.31;;;16.99;62.61
5812;BME280;2932;52.400;9.558;2023-03-23T14:38:03;99829.03;;;16.80;63.73
5812;BME280;2932;52.400;9.558;2023-03-23T14:40:29;99846.91;;;15.88;65.92
5812;BME280;2932;52.400;9.558;2023-03-23T14:42:56;99837.63;;;16.30;65.38
5812;BME280;2932;52.400;9.558;2023-03-23T14:45:23;99866.34;;;16.23;65.72
5812;BME280;2932;52.400;9.558;2023-03-23T14:47:59;99838.81;;;16.36;66.55
5812;BME280;2932;52.400;9.558;2023-03-23T14:53:28;99844.84;;;16.10;67.02
5812;BME280;2932;52.400;9.558;2023-03-23T14:55:54;99834.16;;;15.73;68.37
5812;BME280;2932;52.400;9.558;2023-03-23T14:58:23;99831.66;;;16.28;67.03
5812;BME280;2932;52.400;9.558;2023-03-23T15:01:00;99837.66;;;16.12;67.70
5812;BME280;2932;52.400;9.558;2023-03-23T15:03:28;99826.56;;;15.87;67.70
5812;BME280;2932;52.400;9.558;2023-03-23T15:05:59;99822.97;;;15.87;68.05
5812;BME280;2932;52.400;9.558;2023-03-23T15:08:30;99842.03;;;16.13;67.29
5812;BME280;2932;52.400;9.558;2023-03-23T15:11:07;99840.97;;;15.57;68.41
5812;BME280;2932;52.400;9.558;2023-03-23T15:13:35;99829.38;;;15.48;69.24
5812;BME280;2932;52.400;9.558;2023-03-23T15:16:05;99853.28;;;15.74;68.46
5812;BME280;2932;52.400;9.558;2023-03-23T15:18:37;99860.44;;;15.89;68.61
5812;BME280;2932;52.400;9.558;2023-03-23T15:21:18;99841.31;;;15.84;68.59
5812;BME280;2932;52.400;9.558;2023-03-23T15:23:44;99818.91;;;16.20;68.09
5812;BME280;2932;52.400;9.558;2023-03-23T15:29:00;99841.72;;;15.51;69.67
5812;BME280;2932;52.400;9.558;2023-03-23T15:31:27;99827.81;;;15.58;69.23
5812;BME280;2932;52.400;9.558;2023-03-23T15:33:56;99840.94;;;15.79;68.86
5812;BME280;2932;52.400;9.558;2023-03-23T15:36:24;99842.13;;;15.67;68.40
5812;BME280;2932;52.400;9.558;2023-03-23T15:38:49;99856.81;;;16.07;68.25
5812;BME280;2932;52.400;9.558;2023-03-23T15:41:24;99861.66;;;15.56;69.10
5812;BME280;2932;52.400;9.558;2023-03-23T15:43:55;99873.16;;;16.05;68.07
5812;BME280;2932;52.400;9.558;2023-03-23T15:46:26;99853.66;;;17.58;64.59